createdAt,value
2018-09-05T11:05:17.522Z,7.75
2018-09-05T11:07:45.813Z,7.00
2018-09-05T11:10:13.817Z,7.45
2018-09-05T11:12:41.820Z,8.25
2018-09-05T11:15:09.773Z,6.97
2018-09-05T11:17:37.769Z,7.10
2018-09-05T11:20:06.400Z,7.75
2018-09-05T11:22:34.489Z,8.75
2018-09-05T11:25:02.460Z,7.90
2018-09-05T11:27:30.554Z,7.20
2018-09-05T11:29:58.609Z,7.47
2018-09-05T11:32:26.637Z,7.25
2018-09-05T11:34:54.619Z,7.10
2018-09-05T11:37:22.624Z,6.80
2018-09-05T11:39:50.640Z,7.67
2018-09-05T11:42:18.748Z,7.62
2018-09-05T11:44:46.737Z,6.90
2018-09-05T11:47:14.807Z,7.65
2018-09-05T11:49:42.849Z,7.28
2018-09-05T11:52:10.933Z,7.80
2018-09-05T11:54:38.917Z,7.17
2018-09-05T11:57:06.945Z,7.17
2018-09-05T11:59:34.949Z,6.70
2018-09-05T12:02:03.086Z,7.45
2018-09-05T12:04:31.095Z,6.85
2018-09-05T12:06:59.141Z,7.83
2018-09-05T12:09:27.101Z,6.83
2018-09-05T12:11:55.213Z,6.40
2018-09-05T12:14:23.253Z,6.35
2018-09-05T12:16:51.337Z,6.95
2018-09-05T12:19:19.337Z,7.17
2018-09-05T12:21:47.353Z,6.78
2018-09-05T12:24:15.344Z,7.33
2018-09-05T12:26:43.333Z,6.17
2018-09-05T12:29:12.289Z,7.15
2018-09-05T12:31:40.862Z,7.40
2018-09-05T12:34:09.078Z,6.10
2018-09-05T12:36:37.157Z,6.17
2018-09-05T12:39:07.137Z,5.72
2018-09-05T12:41:35.178Z,6.20
2018-09-05T12:44:03.216Z,5.72
2018-09-05T12:46:31.171Z,5.83
2018-09-05T12:48:59.133Z,5.92
2018-09-05T12:51:27.188Z,6.05
2018-09-05T12:53:55.196Z,5.60
2018-09-05T12:56:23.228Z,5.40
2018-09-05T12:58:51.196Z,5.70
2018-09-05T13:01:19.256Z,5.58
2018-09-05T13:03:47.203Z,5.43
2018-09-05T13:06:15.184Z,5.30
2018-09-05T13:08:43.266Z,5.50
2018-09-05T13:11:11.245Z,5.35
2018-09-05T13:13:39.205Z,7.35
2018-09-05T13:16:07.217Z,5.45
2018-09-05T13:18:35.372Z,5.37
2018-09-05T13:21:03.360Z,5.22
2018-09-05T13:23:31.500Z,5.20
2018-09-05T13:25:59.660Z,4.97
2018-09-05T13:28:27.736Z,5.33
2018-09-05T13:30:55.896Z,5.15
2018-09-05T13:33:23.880Z,5.05
2018-09-05T13:35:51.900Z,5.20
2018-09-05T13:38:19.892Z,4.70
2018-09-05T13:40:47.860Z,4.47
2018-09-05T13:43:15.901Z,4.72
2018-09-05T13:45:43.869Z,4.40
2018-09-05T13:48:11.896Z,5.10
2018-09-05T13:50:39.856Z,4.67
2018-09-05T13:53:07.877Z,4.70
2018-09-05T13:55:35.868Z,4.65
2018-09-05T13:58:10.210Z,4.37
2018-09-05T14:00:38.213Z,5.00
2018-09-05T14:03:06.257Z,5.42
2018-09-05T14:05:34.297Z,4.60
2018-09-05T14:08:02.301Z,4.30
2018-09-05T14:10:30.313Z,4.87
2018-09-05T14:12:58.370Z,4.60
2018-09-05T14:15:26.397Z,7.42
2018-09-05T14:17:54.492Z,4.97
2018-09-05T14:20:22.654Z,4.62
2018-09-05T14:22:50.650Z,4.87
2018-09-05T14:25:18.669Z,4.75
2018-09-05T14:27:46.703Z,4.87
2018-09-05T14:30:14.878Z,4.70
2018-09-05T14:32:42.882Z,4.62
2018-09-05T14:35:10.878Z,4.80
2018-09-05T14:37:38.866Z,6.35
2018-09-05T14:40:06.929Z,5.00
2018-09-05T14:42:34.855Z,5.33
2018-09-05T14:45:02.822Z,5.45
2018-09-05T14:47:30.798Z,5.15
2018-09-05T14:49:58.791Z,4.70
2018-09-05T14:52:26.794Z,4.58
2018-09-05T14:54:54.775Z,12.25
2018-09-05T14:57:22.843Z,4.90
2018-09-05T14:59:52.560Z,4.90
2018-09-05T15:02:20.680Z,4.65
2018-09-05T15:04:48.663Z,4.65
2018-09-05T15:07:16.864Z,4.80
2018-09-05T15:09:44.863Z,4.70
2018-09-05T15:12:13.027Z,4.33
2018-09-05T15:14:40.987Z,4.60
2018-09-05T15:17:09.066Z,4.90
2018-09-05T15:19:37.063Z,4.75
2018-09-05T15:22:05.032Z,5.00
2018-09-05T15:24:33.315Z,5.50
2018-09-05T15:27:01.307Z,4.53
2018-09-05T15:29:30.043Z,4.85
2018-09-05T15:31:58.108Z,5.15
2018-09-05T15:34:26.179Z,4.87
2018-09-05T15:36:54.170Z,4.75
2018-09-05T15:39:22.185Z,5.00
2018-09-05T15:41:50.232Z,5.25
2018-09-05T15:44:18.331Z,5.10
2018-09-05T15:46:46.406Z,4.70
2018-09-05T15:49:14.334Z,5.17
2018-09-05T15:51:42.339Z,5.63
2018-09-05T15:54:10.492Z,5.35
2018-09-05T15:56:38.441Z,5.47
2018-09-05T15:59:06.495Z,5.87
2018-09-05T16:01:34.511Z,5.70
2018-09-05T16:04:02.503Z,5.42
2018-09-05T16:06:30.903Z,5.65
2018-09-05T16:08:58.895Z,5.20
2018-09-05T16:11:26.879Z,5.35
2018-09-05T16:13:54.895Z,5.25
2018-09-05T16:16:22.921Z,5.33
2018-09-05T16:18:50.918Z,5.70
2018-09-05T16:21:18.923Z,5.00
2018-09-05T16:23:46.920Z,4.95
2018-09-05T16:26:14.928Z,4.95
2018-09-05T16:28:42.924Z,4.92
2018-09-05T16:31:10.888Z,5.83
2018-09-05T16:33:38.844Z,5.05
2018-09-05T16:36:06.850Z,4.90
2018-09-05T16:38:34.767Z,5.35
2018-09-05T16:41:02.803Z,5.12
2018-09-05T16:43:31.164Z,5.67
2018-09-05T16:45:59.589Z,5.80
2018-09-05T16:48:27.638Z,4.85
2018-09-05T16:50:55.668Z,5.20
2018-09-05T16:53:23.615Z,5.37
2018-09-05T16:55:51.624Z,5.12
2018-09-05T16:58:19.621Z,5.87
2018-09-05T17:00:47.783Z,5.72
2018-09-05T17:03:15.841Z,6.50
2018-09-05T17:05:43.953Z,5.62
2018-09-05T17:08:12.089Z,6.40
2018-09-05T17:10:40.152Z,7.28
2018-09-05T17:13:08.134Z,6.22
2018-09-05T17:15:36.245Z,5.92
2018-09-05T17:18:04.237Z,5.70
2018-09-05T17:20:32.202Z,6.20
2018-09-05T17:23:00.160Z,6.50
2018-09-05T17:25:28.154Z,6.00
2018-09-05T17:27:56.125Z,5.85
2018-09-05T17:30:24.101Z,6.42
2018-09-05T17:32:52.082Z,5.67
2018-09-05T17:35:20.202Z,5.75
2018-09-05T17:37:48.057Z,5.22
2018-09-05T17:40:16.033Z,5.22
2018-09-05T17:42:44.009Z,5.47
2018-09-05T17:45:12.013Z,5.37
2018-09-05T17:47:40.042Z,5.87
2018-09-05T17:50:08.000Z,5.25
2018-09-05T17:52:35.997Z,5.87
2018-09-05T17:55:04.389Z,5.40
2018-09-05T17:57:32.378Z,6.20
2018-09-05T18:00:00.885Z,5.60
2018-09-05T18:02:28.841Z,5.55
2018-09-05T18:04:56.805Z,5.00
2018-09-05T18:07:24.808Z,5.60
2018-09-05T18:09:52.919Z,5.60
2018-09-05T18:12:21.189Z,5.70
2018-09-05T18:14:49.177Z,5.03
2018-09-05T18:17:17.146Z,5.40
2018-09-05T18:19:45.114Z,5.47
2018-09-05T18:22:13.098Z,5.35
2018-09-05T18:24:41.055Z,4.97
2018-09-05T18:27:09.134Z,4.80
2018-09-05T18:29:37.129Z,5.43
2018-09-05T18:32:05.139Z,5.30
2018-09-05T18:34:33.123Z,5.17
2018-09-05T18:37:01.106Z,5.67
2018-09-05T18:39:29.142Z,5.93
2018-09-05T18:41:57.118Z,4.60
2018-09-05T18:44:25.122Z,5.43
2018-09-05T18:46:53.129Z,4.63
2018-09-05T18:49:21.820Z,4.77
2018-09-05T18:51:49.906Z,4.70
2018-09-05T18:54:17.879Z,4.83
2018-09-05T18:56:45.827Z,4.77
2018-09-05T18:59:13.827Z,4.53
2018-09-05T19:01:41.795Z,4.70
2018-09-05T19:04:09.791Z,4.67
2018-09-05T19:06:37.830Z,4.40
2018-09-05T19:09:07.375Z,4.87
2018-09-05T19:11:35.368Z,4.20
2018-09-05T19:14:03.427Z,4.97
2018-09-05T19:16:32.151Z,4.13
2018-09-05T19:19:00.134Z,4.70
2018-09-05T19:21:28.291Z,4.67
2018-09-05T19:23:56.391Z,4.90
2018-09-05T19:26:24.378Z,4.27
2018-09-05T19:28:52.342Z,4.77
2018-09-05T19:31:20.339Z,4.47
2018-09-05T19:33:48.334Z,4.57
2018-09-05T19:36:16.374Z,4.70
2018-09-05T19:38:44.330Z,4.90
2018-09-05T19:41:12.283Z,4.63
2018-09-05T19:43:40.254Z,4.53
2018-09-05T19:46:08.215Z,4.57
2018-09-05T19:48:36.178Z,4.83
2018-09-05T19:51:04.188Z,4.73
2018-09-05T19:53:32.595Z,4.53
2018-09-05T19:56:00.603Z,4.80
2018-09-05T19:58:28.567Z,5.13
2018-09-05T20:00:56.631Z,4.50
2018-09-05T20:03:24.732Z,4.50
2018-09-05T20:05:52.776Z,4.90
2018-09-05T20:08:20.719Z,4.90
2018-09-05T20:10:48.720Z,4.70
2018-09-05T20:13:16.740Z,4.63
2018-09-05T20:15:44.864Z,5.37
2018-09-05T20:18:19.488Z,4.80
2018-09-05T20:20:47.459Z,4.93
2018-09-05T20:23:15.522Z,5.03
2018-09-05T20:25:43.560Z,5.30
2018-09-05T20:28:11.548Z,5.17
2018-09-05T20:30:39.516Z,5.20
2018-09-05T20:33:07.558Z,5.27
2018-09-05T20:35:35.436Z,5.17
2018-09-05T20:38:03.449Z,5.20
2018-09-05T20:40:31.388Z,5.33
2018-09-05T20:42:59.412Z,5.60
2018-09-05T20:45:27.468Z,5.47
2018-09-05T20:47:55.429Z,5.07
2018-09-05T20:50:23.429Z,5.20
2018-09-05T20:52:51.380Z,5.70
2018-09-05T20:55:19.337Z,5.20
2018-09-05T20:57:47.315Z,5.20
2018-09-05T21:00:15.264Z,5.63
2018-09-05T21:02:43.233Z,5.10
2018-09-05T21:05:11.208Z,4.90
2018-09-05T21:07:39.161Z,5.43
2018-09-05T21:10:07.185Z,4.70
2018-09-05T21:12:41.832Z,5.60
2018-09-05T21:15:09.803Z,5.53
2018-09-05T21:17:37.781Z,6.40
2018-09-05T21:20:05.756Z,5.30
2018-09-05T21:22:33.740Z,5.17
2018-09-05T21:25:01.701Z,4.80
2018-09-05T21:27:29.697Z,5.33
2018-09-05T21:29:57.682Z,4.90
2018-09-05T21:32:25.729Z,5.77
2018-09-05T21:34:53.753Z,5.70
2018-09-05T21:37:21.736Z,5.53
2018-09-05T21:39:49.722Z,5.50
2018-09-05T21:42:17.745Z,5.10
2018-09-05T21:44:45.725Z,5.73
2018-09-05T21:47:13.689Z,5.83
2018-09-05T21:49:41.669Z,5.47
2018-09-05T21:52:09.693Z,5.30
2018-09-05T21:54:37.714Z,5.43
2018-09-05T21:57:05.686Z,5.60
2018-09-05T21:59:33.649Z,5.93
2018-09-05T22:02:01.780Z,6.07
2018-09-05T22:04:29.798Z,5.97
2018-09-05T22:06:57.829Z,6.10
2018-09-05T22:09:25.890Z,5.77
2018-09-05T22:11:53.850Z,5.67
2018-09-05T22:14:21.850Z,5.73
2018-09-05T22:16:49.829Z,5.40
2018-09-05T22:19:17.766Z,5.87
2018-09-05T22:21:45.730Z,6.40
2018-09-05T22:24:13.721Z,6.17
2018-09-05T22:26:41.690Z,5.83
2018-09-05T22:29:09.670Z,6.07
2018-09-05T22:31:37.618Z,5.87
2018-09-05T22:34:05.570Z,6.70
2018-09-05T22:36:33.938Z,6.00
2018-09-05T22:39:01.937Z,5.97
2018-09-05T22:41:29.938Z,6.80
2018-09-05T22:44:03.486Z,6.47
2018-09-05T22:46:37.085Z,6.57
2018-09-05T22:49:10.754Z,6.93
2018-09-05T22:51:56.757Z,6.60
2018-09-05T22:55:40.530Z,6.67
2018-09-05T22:59:23.730Z,6.53
2018-09-05T23:04:19.606Z,6.73
2018-09-05T23:07:01.202Z,6.43
2018-09-05T23:09:40.602Z,7.00
2018-09-05T23:12:30.191Z,6.63
2018-09-05T23:16:12.495Z,6.70
2018-09-05T23:19:11.718Z,6.57
2018-09-05T23:21:39.930Z,6.03
2018-09-05T23:24:09.391Z,6.80
2018-09-05T23:26:37.606Z,6.63
2018-09-05T23:29:05.862Z,6.67
2018-09-05T23:31:34.426Z,6.60
2018-09-05T23:34:02.385Z,6.97
2018-09-05T23:36:30.378Z,7.03
2018-09-05T23:38:58.410Z,6.93
2018-09-05T23:41:26.421Z,7.40
2018-09-05T23:43:54.410Z,7.77
2018-09-05T23:46:22.402Z,6.90
2018-09-05T23:48:50.389Z,7.63
2018-09-05T23:51:18.338Z,6.87
2018-09-05T23:53:46.262Z,6.97
2018-09-05T23:56:14.254Z,6.97
2018-09-05T23:58:42.221Z,7.97
